CYGP

Gaspé (Michel-Pouliot) Airport

Gaspé, Quebec, Canada
METAR CYGP 220500Z 26002KT 15SM FEW088 04/02 A2989 RMK AC1 AC TR SLP124
Observed Flight Rules
Jun-22 @ 05:00 UTC (49 minutes ago) Visual Flight Rules
Wind Visibility Clouds
260° at 2 knots 15 miles
  • Few at 8,800' AGL
Temperatures Readings
Current 4°C / 39°F
Dewpoint 2°C / 36°F
Humidity 87%
Altimeter 29.89" Hg
Pressure 1012.4 hPa
Elevation 33
METAR CYGP 220500Z 26002KT 15SM FEW088 04/02 A2989 RMK AC1 AC TR SLP124
Observed Flight Rules
Jun-22 @ 05:00 UTC
(49 minutes ago)
VFR
Wind Visibility
260° at 2 knots 15 miles
Clouds
  • Few at 8,800' AGL
Temperature Dewpoint
4°C / 39°F 2°C / 36°F
Humidity Altimeter Pressure
87% 29.89" Hg 1012.4 hPa